sensor_id;sensor_type;location;lat;lon;timestamp;temperature;humidity
23160;DHT22;11748;50.844;4.396;2023-09-18T00:01:57;22.90;99.90
23160;DHT22;11748;50.844;4.396;2023-09-18T00:04:22;22.80;99.90
23160;DHT22;11748;50.844;4.396;2023-09-18T00:06:48;22.80;99.90
23160;DHT22;11748;50.844;4.396;2023-09-18T00:09:14;22.90;99.90
23160;DHT22;11748;50.844;4.396;2023-09-18T00:11:40;23.00;99.90
23160;DHT22;11748;50.844;4.396;2023-09-18T00:14:07;23.00;99.90
23160;DHT22;11748;50.844;4.396;2023-09-18T00:16:33;23.00;99.90
23160;DHT22;11748;50.844;4.396;2023-09-18T00:18:59;23.10;99.90
23160;DHT22;11748;50.844;4.396;2023-09-18T00:21:25;22.90;99.90
23160;DHT22;11748;50.844;4.396;2023-09-18T00:23:52;22.80;99.90
23160;DHT22;11748;50.844;4.396;2023-09-18T00:26:18;22.80;99.90
23160;DHT22;11748;50.844;4.396;2023-09-18T00:28:43;22.60;99.90
23160;DHT22;11748;50.844;4.396;2023-09-18T00:31:09;22.60;99.90
23160;DHT22;11748;50.844;4.396;2023-09-18T00:33:35;22.80;99.90
23160;DHT22;11748;50.844;4.396;2023-09-18T00:36:01;22.90;99.90
23160;DHT22;11748;50.844;4.396;2023-09-18T00:38:27;23.00;99.90
23160;DHT22;11748;50.844;4.396;2023-09-18T00:40:52;23.10;99.90
23160;DHT22;11748;50.844;4.396;2023-09-18T00:43:18;23.10;99.90
23160;DHT22;11748;50.844;4.396;2023-09-18T00:45:45;23.00;99.90
23160;DHT22;11748;50.844;4.396;2023-09-18T00:48:15;23.00;99.90
23160;DHT22;11748;50.844;4.396;2023-09-18T00:50:41;22.70;99.90
23160;DHT22;11748;50.844;4.396;2023-09-18T00:53:09;22.40;99.90
23160;DHT22;11748;50.844;4.396;2023-09-18T00:55:37;22.40;99.90
23160;DHT22;11748;50.844;4.396;2023-09-18T00:58:04;22.20;99.90
23160;DHT22;11748;50.844;4.396;2023-09-18T01:00:29;22.10;99.90
23160;DHT22;11748;50.844;4.396;2023-09-18T01:02:55;22.00;99.90
23160;DHT22;11748;50.844;4.396;2023-09-18T01:05:21;22.00;99.90
23160;DHT22;11748;50.844;4.396;2023-09-18T01:07:47;22.00;99.90
23160;DHT22;11748;50.844;4.396;2023-09-18T01:10:13;22.00;99.90
23160;DHT22;11748;50.844;4.396;2023-09-18T01:13:01;21.80;99.90
23160;DHT22;11748;50.844;4.396;2023-09-18T01:15:35;21.80;99.90
23160;DHT22;11748;50.844;4.396;2023-09-18T01:18:02;21.90;99.90
23160;DHT22;11748;50.844;4.396;2023-09-18T01:20:28;21.80;99.90
23160;DHT22;11748;50.844;4.396;2023-09-18T01:22:54;21.80;99.90
23160;DHT22;11748;50.844;4.396;2023-09-18T01:25:20;22.00;99.90
23160;DHT22;11748;50.844;4.396;2023-09-18T01:27:46;22.00;99.90
23160;DHT22;11748;50.844;4.396;2023-09-18T01:30:11;22.00;99.90
23160;DHT22;11748;50.844;4.396;2023-09-18T01:32:38;22.20;99.90
23160;DHT22;11748;50.844;4.396;2023-09-18T01:35:05;22.30;99.90
23160;DHT22;11748;50.844;4.396;2023-09-18T01:37:33;22.40;99.90
23160;DHT22;11748;50.844;4.396;2023-09-18T01:40:02;22.30;99.90
23160;DHT22;11748;50.844;4.396;2023-09-18T01:42:32;22.30;99.90
23160;DHT22;11748;50.844;4.396;2023-09-18T01:44:58;22.30;99.90
23160;DHT22;11748;50.844;4.396;2023-09-18T01:47:24;22.30;99.90
23160;DHT22;11748;50.844;4.396;2023-09-18T01:49:52;22.40;99.90
23160;DHT22;11748;50.844;4.396;2023-09-18T01:52:18;22.40;99.90
23160;DHT22;11748;50.844;4.396;2023-09-18T01:54:44;22.40;99.90
23160;DHT22;11748;50.844;4.396;2023-09-18T01:57:10;22.40;99.90
23160;DHT22;11748;50.844;4.396;2023-09-18T01:59:35;22.40;99.90
23160;DHT22;11748;50.844;4.396;2023-09-18T02:02:01;22.30;99.90
23160;DHT22;11748;50.844;4.396;2023-09-18T02:04:32;22.30;99.90
23160;DHT22;11748;50.844;4.396;2023-09-18T02:06:58;22.30;99.90
23160;DHT22;11748;50.844;4.396;2023-09-18T02:09:24;22.20;99.90
23160;DHT22;11748;50.844;4.396;2023-09-18T02:11:49;22.20;99.90
23160;DHT22;11748;50.844;4.396;2023-09-18T02:14:15;22.20;99.90
23160;DHT22;11748;50.844;4.396;2023-09-18T02:16:42;22.20;99.90
23160;DHT22;11748;50.844;4.396;2023-09-18T02:19:12;22.20;99.90
23160;DHT22;11748;50.844;4.396;2023-09-18T02:21:39;22.20;99.90
23160;DHT22;11748;50.844;4.396;2023-09-18T02:24:05;22.20;99.90
23160;DHT22;11748;50.844;4.396;2023-09-18T02:26:31;22.30;99.90
23160;DHT22;11748;50.844;4.396;2023-09-18T02:29:02;22.30;99.90
23160;DHT22;11748;50.844;4.396;2023-09-18T02:31:28;22.20;99.90
23160;DHT22;11748;50.844;4.396;2023-09-18T02:33:54;22.10;99.90
23160;DHT22;11748;50.844;4.396;2023-09-18T02:36:19;22.10;99.90
23160;DHT22;11748;50.844;4.396;2023-09-18T02:38:45;22.10;99.90
23160;DHT22;11748;50.844;4.396;2023-09-18T02:41:11;22.10;99.90
23160;DHT22;11748;50.844;4.396;2023-09-18T02:43:36;22.00;99.90
23160;DHT22;11748;50.844;4.396;2023-09-18T02:46:06;22.00;99.90
23160;DHT22;11748;50.844;4.396;2023-09-18T02:48:32;21.90;99.90
23160;DHT22;11748;50.844;4.396;2023-09-18T02:51:01;21.90;99.90
23160;DHT22;11748;50.844;4.396;2023-09-18T02:53:27;22.00;99.90
23160;DHT22;11748;50.844;4.396;2023-09-18T02:55:56;22.00;99.90
23160;DHT22;11748;50.844;4.396;2023-09-18T02:58:22;22.00;99.90
23160;DHT22;11748;50.844;4.396;2023-09-18T03:00:50;22.00;99.90
23160;DHT22;11748;50.844;4.396;2023-09-18T03:03:16;22.00;99.90
23160;DHT22;11748;50.844;4.396;2023-09-18T03:05:43;21.90;99.90
23160;DHT22;11748;50.844;4.396;2023-09-18T03:08:11;21.90;99.90
23160;DHT22;11748;50.844;4.396;2023-09-18T03:10:38;21.90;99.90
23160;DHT22;11748;50.844;4.396;2023-09-18T03:13:08;21.80;99.90
23160;DHT22;11748;50.844;4.396;2023-09-18T03:15:35;21.80;99.90
23160;DHT22;11748;50.844;4.396;2023-09-18T03:18:02;21.80;99.90
23160;DHT22;11748;50.844;4.396;2023-09-18T03:20:28;21.80;99.90
23160;DHT22;11748;50.844;4.396;2023-09-18T03:22:59;21.80;99.90
23160;DHT22;11748;50.844;4.396;2023-09-18T03:25:25;21.90;99.90
23160;DHT22;11748;50.844;4.396;2023-09-18T03:27:53;22.00;99.90
23160;DHT22;11748;50.844;4.396;2023-09-18T03:30:19;22.00;99.90
23160;DHT22;11748;50.844;4.396;2023-09-18T03:32:45;22.00;99.90
23160;DHT22;11748;50.844;4.396;2023-09-18T03:35:11;22.10;99.90
23160;DHT22;11748;50.844;4.396;2023-09-18T03:37:46;22.10;99.90
23160;DHT22;11748;50.844;4.396;2023-09-18T03:40:13;22.00;99.90
23160;DHT22;11748;50.844;4.396;2023-09-18T03:42:39;22.10;99.90
23160;DHT22;11748;50.844;4.396;2023-09-18T03:45:09;22.10;99.90
23160;DHT22;11748;50.844;4.396;2023-09-18T03:47:36;22.10;99.90
23160;DHT22;11748;50.844;4.396;2023-09-18T03:50:03;22.10;99.90
23160;DHT22;11748;50.844;4.396;2023-09-18T03:52:29;22.10;99.90
23160;DHT22;11748;50.844;4.396;2023-09-18T03:54:55;22.00;99.90
23160;DHT22;11748;50.844;4.396;2023-09-18T03:57:21;21.90;99.90
23160;DHT22;11748;50.844;4.396;2023-09-18T03:59:47;21.90;99.90
23160;DHT22;11748;50.844;4.396;2023-09-18T04:02:13;21.80;99.90
23160;DHT22;11748;50.844;4.396;2023-09-18T04:04:38;21.80;99.90
23160;DHT22;11748;50.844;4.396;2023-09-18T04:07:08;21.70;99.90
23160;DHT22;11748;50.844;4.396;2023-09-18T04:09:35;21.70;99.90
23160;DHT22;11748;50.844;4.396;2023-09-18T04:12:02;21.70;99.90
23160;DHT22;11748;50.844;4.396;2023-09-18T04:14:31;21.60;99.90
23160;DHT22;11748;50.844;4.396;2023-09-18T04:16:59;21.40;99.90
23160;DHT22;11748;50.844;4.396;2023-09-18T04:19:28;21.50;99.90
23160;DHT22;11748;50.844;4.396;2023-09-18T04:21:55;21.40;99.90
23160;DHT22;11748;50.844;4.396;2023-09-18T04:24:21;21.40;99.90
23160;DHT22;11748;50.844;4.396;2023-09-18T04:26:46;21.40;99.90
23160;DHT22;11748;50.844;4.396;2023-09-18T04:29:12;21.30;99.90
23160;DHT22;11748;50.844;4.396;2023-09-18T04:31:38;21.40;99.90
23160;DHT22;11748;50.844;4.396;2023-09-18T04:34:04;21.30;99.90
23160;DHT22;11748;50.844;4.396;2023-09-18T04:36:30;21.30;99.90
23160;DHT22;11748;50.844;4.396;2023-09-18T04:38:57;21.30;99.90
23160;DHT22;11748;50.844;4.396;2023-09-18T04:41:22;21.20;99.90
23160;DHT22;11748;50.844;4.396;2023-09-18T04:43:48;21.20;99.90
23160;DHT22;11748;50.844;4.396;2023-09-18T04:46:15;21.20;99.90
23160;DHT22;11748;50.844;4.396;2023-09-18T04:48:41;21.10;99.90
23160;DHT22;11748;50.844;4.396;2023-09-18T04:51:06;21.10;99.90
23160;DHT22;11748;50.844;4.396;2023-09-18T04:53:33;21.00;99.90
23160;DHT22;11748;50.844;4.396;2023-09-18T04:55:59;21.00;99.90
23160;DHT22;11748;50.844;4.396;2023-09-18T04:58:26;21.00;99.90
23160;DHT22;11748;50.844;4.396;2023-09-18T05:00:55;20.90;99.90
23160;DHT22;11748;50.844;4.396;2023-09-18T05:03:21;20.90;99.90
23160;DHT22;11748;50.844;4.396;2023-09-18T05:05:47;20.90;99.90
23160;DHT22;11748;50.844;4.396;2023-09-18T05:08:13;20.70;99.90
23160;DHT22;11748;50.844;4.396;2023-09-18T05:10:40;20.80;99.90
23160;DHT22;11748;50.844;4.396;2023-09-18T05:13:06;20.80;99.90
23160;DHT22;11748;50.844;4.396;2023-09-18T05:15:32;20.80;99.90
23160;DHT22;11748;50.844;4.396;2023-09-18T05:17:59;20.70;99.90
23160;DHT22;11748;50.844;4.396;2023-09-18T05:20:27;20.70;99.90
23160;DHT22;11748;50.844;4.396;2023-09-18T05:22:54;20.80;99.90
23160;DHT22;11748;50.844;4.396;2023-09-18T05:25:25;20.80;99.90
23160;DHT22;11748;50.844;4.396;2023-09-18T05:27:53;20.80;99.90
23160;DHT22;11748;50.844;4.396;2023-09-18T05:30:25;20.70;99.90
23160;DHT22;11748;50.844;4.396;2023-09-18T05:32:54;20.70;99.90
23160;DHT22;11748;50.844;4.396;2023-09-18T05:35:20;20.70;99.90
23160;DHT22;11748;50.844;4.396;2023-09-18T05:37:47;20.70;99.90
23160;DHT22;11748;50.844;4.396;2023-09-18T05:40:13;20.70;99.90
23160;DHT22;11748;50.844;4.396;2023-09-18T05:42:41;20.70;99.90
23160;DHT22;11748;50.844;4.396;2023-09-18T05:45:14;20.60;99.90
23160;DHT22;11748;50.844;4.396;2023-09-18T05:47:41;20.50;99.90
23160;DHT22;11748;50.844;4.396;2023-09-18T05:50:12;20.40;99.90
23160;DHT22;11748;50.844;4.396;2023-09-18T05:52:43;20.30;99.90
23160;DHT22;11748;50.844;4.396;2023-09-18T05:55:09;20.30;99.90
23160;DHT22;11748;50.844;4.396;2023-09-18T05:57:35;20.20;99.90
23160;DHT22;11748;50.844;4.396;2023-09-18T06:00:01;20.20;99.90
23160;DHT22;11748;50.844;4.396;2023-09-18T06:02:27;20.20;99.90
23160;DHT22;11748;50.844;4.396;2023-09-18T06:04:56;20.30;99.90
23160;DHT22;11748;50.844;4.396;2023-09-18T06:07:24;20.20;99.90
23160;DHT22;11748;50.844;4.396;2023-09-18T06:09:50;20.20;99.90
23160;DHT22;11748;50.844;4.396;2023-09-18T06:12:16;20.20;99.90
23160;DHT22;11748;50.844;4.396;2023-09-18T06:14:42;20.30;99.90
23160;DHT22;11748;50.844;4.396;2023-09-18T06:17:08;20.20;99.90
23160;DHT22;11748;50.844;4.396;2023-09-18T06:19:35;20.00;99.90
23160;DHT22;11748;50.844;4.396;2023-09-18T06:22:01;20.00;99.90
23160;DHT22;11748;50.844;4.396;2023-09-18T06:24:26;20.00;99.90
23160;DHT22;11748;50.844;4.396;2023-09-18T06:26:52;20.10;99.90
23160;DHT22;11748;50.844;4.396;2023-09-18T06:29:18;20.20;99.90
23160;DHT22;11748;50.844;4.396;2023-09-18T06:31:44;20.30;99.90
23160;DHT22;11748;50.844;4.396;2023-09-18T06:34:10;20.40;99.90
23160;DHT22;11748;50.844;4.396;2023-09-18T06:36:37;20.50;99.90
23160;DHT22;11748;50.844;4.396;2023-09-18T06:39:03;20.40;99.90
23160;DHT22;11748;50.844;4.396;2023-09-18T06:41:29;20.50;99.90
23160;DHT22;11748;50.844;4.396;2023-09-18T06:43:54;20.10;99.90
23160;DHT22;11748;50.844;4.396;2023-09-18T06:46:20;20.30;99.90
23160;DHT22;11748;50.844;4.396;2023-09-18T06:48:46;20.40;99.90
23160;DHT22;11748;50.844;4.396;2023-09-18T06:51:15;20.50;99.90
23160;DHT22;11748;50.844;4.396;2023-09-18T06:53:42;20.50;99.90
23160;DHT22;11748;50.844;4.396;2023-09-18T06:56:08;20.60;99.90
23160;DHT22;11748;50.844;4.396;2023-09-18T06:58:35;20.50;99.90
23160;DHT22;11748;50.844;4.396;2023-09-18T07:01:01;20.50;99.90
23160;DHT22;11748;50.844;4.396;2023-09-18T07:03:26;20.60;99.90
23160;DHT22;11748;50.844;4.396;2023-09-18T07:05:52;20.50;99.90
23160;DHT22;11748;50.844;4.396;2023-09-18T07:08:18;20.50;99.90
23160;DHT22;11748;50.844;4.396;2023-09-18T07:10:51;20.50;99.90
23160;DHT22;11748;50.844;4.396;2023-09-18T07:13:17;20.60;99.90
23160;DHT22;11748;50.844;4.396;2023-09-18T07:15:42;20.70;99.90
23160;DHT22;11748;50.844;4.396;2023-09-18T07:18:09;20.70;99.90
23160;DHT22;11748;50.844;4.396;2023-09-18T07:20:48;20.50;99.90
23160;DHT22;11748;50.844;4.396;2023-09-18T07:23:14;20.40;99.90
23160;DHT22;11748;50.844;4.396;2023-09-18T07:25:40;20.50;99.90
23160;DHT22;11748;50.844;4.396;2023-09-18T07:28:08;20.60;99.90
23160;DHT22;11748;50.844;4.396;2023-09-18T07:30:34;20.80;99.90
23160;DHT22;11748;50.844;4.396;2023-09-18T07:33:03;20.80;99.90
23160;DHT22;11748;50.844;4.396;2023-09-18T07:35:29;20.70;99.90
23160;DHT22;11748;50.844;4.396;2023-09-18T07:37:55;20.60;99.90
23160;DHT22;11748;50.844;4.396;2023-09-18T07:40:20;20.70;99.90
23160;DHT22;11748;50.844;4.396;2023-09-18T07:42:47;20.60;99.90
23160;DHT22;11748;50.844;4.396;2023-09-18T07:45:13;20.60;99.90
23160;DHT22;11748;50.844;4.396;2023-09-18T07:47:39;20.70;99.90
23160;DHT22;11748;50.844;4.396;2023-09-18T07:50:05;20.70;99.90
23160;DHT22;11748;50.844;4.396;2023-09-18T07:52:31;20.60;99.90
23160;DHT22;11748;50.844;4.396;2023-09-18T07:54:58;20.70;99.90
23160;DHT22;11748;50.844;4.396;2023-09-18T07:57:25;20.80;99.90
23160;DHT22;11748;50.844;4.396;2023-09-18T07:59:51;20.90;99.90
23160;DHT22;11748;50.844;4.396;2023-09-18T08:02:17;21.10;99.90
23160;DHT22;11748;50.844;4.396;2023-09-18T08:04:43;21.20;99.90
23160;DHT22;11748;50.844;4.396;2023-09-18T08:07:09;20.90;99.90
23160;DHT22;11748;50.844;4.396;2023-09-18T08:09:35;21.00;99.90
23160;DHT22;11748;50.844;4.396;2023-09-18T08:12:05;21.10;99.90
23160;DHT22;11748;50.844;4.396;2023-09-18T08:14:32;21.40;99.90
23160;DHT22;11748;50.844;4.396;2023-09-18T08:17:01;21.40;99.90
23160;DHT22;11748;50.844;4.396;2023-09-18T08:19:28;21.60;99.90
23160;DHT22;11748;50.844;4.396;2023-09-18T08:21:54;21.50;99.90
23160;DHT22;11748;50.844;4.396;2023-09-18T08:24:22;21.50;99.90
23160;DHT22;11748;50.844;4.396;2023-09-18T08:26:48;21.40;99.90
23160;DHT22;11748;50.844;4.396;2023-09-18T08:29:14;21.60;99.90
23160;DHT22;11748;50.844;4.396;2023-09-18T08:31:40;21.90;99.90
23160;DHT22;11748;50.844;4.396;2023-09-18T08:34:09;21.90;99.90
23160;DHT22;11748;50.844;4.396;2023-09-18T08:36:41;21.80;99.90
23160;DHT22;11748;50.844;4.396;2023-09-18T08:39:08;21.70;99.90
23160;DHT22;11748;50.844;4.396;2023-09-18T08:41:38;21.70;99.90
23160;DHT22;11748;50.844;4.396;2023-09-18T08:44:07;21.50;99.90
23160;DHT22;11748;50.844;4.396;2023-09-18T08:46:34;21.40;99.90
23160;DHT22;11748;50.844;4.396;2023-09-18T08:49:00;21.60;99.90
23160;DHT22;11748;50.844;4.396;2023-09-18T08:51:27;21.40;99.90
23160;DHT22;11748;50.844;4.396;2023-09-18T08:53:54;21.30;99.90
23160;DHT22;11748;50.844;4.396;2023-09-18T08:56:21;21.50;99.90
23160;DHT22;11748;50.844;4.396;2023-09-18T08:58:48;21.80;99.90
23160;DHT22;11748;50.844;4.396;2023-09-18T09:01:14;21.90;99.90
23160;DHT22;11748;50.844;4.396;2023-09-18T09:03:41;22.10;99.90
23160;DHT22;11748;50.844;4.396;2023-09-18T09:06:08;21.80;99.90
23160;DHT22;11748;50.844;4.396;2023-09-18T09:08:36;21.60;99.90
23160;DHT22;11748;50.844;4.396;2023-09-18T09:11:02;21.80;99.90
23160;DHT22;11748;50.844;4.396;2023-09-18T09:13:29;22.00;99.90
23160;DHT22;11748;50.844;4.396;2023-09-18T09:15:56;21.90;99.90
23160;DHT22;11748;50.844;4.396;2023-09-18T09:18:27;21.90;99.90
23160;DHT22;11748;50.844;4.396;2023-09-18T09:21:00;21.90;99.90
23160;DHT22;11748;50.844;4.396;2023-09-18T09:23:28;22.00;99.90
23160;DHT22;11748;50.844;4.396;2023-09-18T09:26:14;21.90;99.90
23160;DHT22;11748;50.844;4.396;2023-09-18T09:28:40;22.10;99.90
23160;DHT22;11748;50.844;4.396;2023-09-18T09:31:09;22.00;99.90
23160;DHT22;11748;50.844;4.396;2023-09-18T09:33:36;22.10;99.90
23160;DHT22;11748;50.844;4.396;2023-09-18T09:36:07;22.30;99.90
23160;DHT22;11748;50.844;4.396;2023-09-18T09:38:34;22.40;99.90
23160;DHT22;11748;50.844;4.396;2023-09-18T09:41:01;22.40;99.90
23160;DHT22;11748;50.844;4.396;2023-09-18T09:43:31;22.20;99.90
23160;DHT22;11748;50.844;4.396;2023-09-18T09:45:59;22.10;99.90
23160;DHT22;11748;50.844;4.396;2023-09-18T09:48:25;22.30;99.90
23160;DHT22;11748;50.844;4.396;2023-09-18T09:50:52;22.00;99.90
23160;DHT22;11748;50.844;4.396;2023-09-18T09:53:42;22.00;99.90
23160;DHT22;11748;50.844;4.396;2023-09-18T09:56:08;22.10;99.90
23160;DHT22;11748;50.844;4.396;2023-09-18T09:58:34;21.80;99.90
23160;DHT22;11748;50.844;4.396;2023-09-18T10:01:03;21.80;99.90
23160;DHT22;11748;50.844;4.396;2023-09-18T10:03:35;21.70;99.90
23160;DHT22;11748;50.844;4.396;2023-09-18T10:06:03;21.40;99.90
23160;DHT22;11748;50.844;4.396;2023-09-18T10:08:31;21.50;99.90
23160;DHT22;11748;50.844;4.396;2023-09-18T10:11:09;21.70;99.90
23160;DHT22;11748;50.844;4.396;2023-09-18T10:14:00;21.80;99.90
23160;DHT22;11748;50.844;4.396;2023-09-18T10:16:31;21.90;99.90
23160;DHT22;11748;50.844;4.396;2023-09-18T10:22:14;21.70;99.90
23160;DHT22;11748;50.844;4.396;2023-09-18T10:24:47;21.70;99.90
23160;DHT22;11748;50.844;4.396;2023-09-18T10:27:17;21.90;99.90
23160;DHT22;11748;50.844;4.396;2023-09-18T10:29:49;21.90;99.90
23160;DHT22;11748;50.844;4.396;2023-09-18T10:32:17;21.70;99.90
23160;DHT22;11748;50.844;4.396;2023-09-18T10:34:46;21.50;99.90
23160;DHT22;11748;50.844;4.396;2023-09-18T10:37:15;21.60;99.90
23160;DHT22;11748;50.844;4.396;2023-09-18T10:39:41;21.80;99.90
23160;DHT22;11748;50.844;4.396;2023-09-18T10:42:09;22.00;99.90
23160;DHT22;11748;50.844;4.396;2023-09-18T10:44:36;22.30;99.90
23160;DHT22;11748;50.844;4.396;2023-09-18T10:47:06;22.20;99.90
23160;DHT22;11748;50.844;4.396;2023-09-18T10:49:34;21.70;99.90
23160;DHT22;11748;50.844;4.396;2023-09-18T10:52:00;21.70;99.90
23160;DHT22;11748;50.844;4.396;2023-09-18T10:54:28;21.90;99.90
23160;DHT22;11748;50.844;4.396;2023-09-18T10:56:56;22.30;99.90
23160;DHT22;11748;50.844;4.396;2023-09-18T10:59:24;22.50;99.90
23160;DHT22;11748;50.844;4.396;2023-09-18T11:01:50;22.60;99.90
23160;DHT22;11748;50.844;4.396;2023-09-18T11:04:19;22.70;99.90
23160;DHT22;11748;50.844;4.396;2023-09-18T11:09:31;22.90;99.90
23160;DHT22;11748;50.844;4.396;2023-09-18T11:14:58;22.60;99.90
23160;DHT22;11748;50.844;4.396;2023-09-18T11:17:38;22.50;99.90
23160;DHT22;11748;50.844;4.396;2023-09-18T11:20:17;22.40;99.90
23160;DHT22;11748;50.844;4.396;2023-09-18T11:23:01;22.60;99.90
23160;DHT22;11748;50.844;4.396;2023-09-18T11:25:40;22.70;99.90
23160;DHT22;11748;50.844;4.396;2023-09-18T11:28:23;22.70;99.90
23160;DHT22;11748;50.844;4.396;2023-09-18T11:30:54;22.90;99.90
23160;DHT22;11748;50.844;4.396;2023-09-18T11:33:37;23.30;99.90
23160;DHT22;11748;50.844;4.396;2023-09-18T11:36:14;23.30;99.90
23160;DHT22;11748;50.844;4.396;2023-09-18T11:38:59;23.40;99.90
23160;DHT22;11748;50.844;4.396;2023-09-18T11:41:33;23.10;99.90
23160;DHT22;11748;50.844;4.396;2023-09-18T11:46:48;22.80;99.90
23160;DHT22;11748;50.844;4.396;2023-09-18T11:49:21;22.70;99.90
23160;DHT22;11748;50.844;4.396;2023-09-18T11:51:47;22.90;99.90
23160;DHT22;11748;50.844;4.396;2023-09-18T11:54:15;23.10;99.90
23160;DHT22;11748;50.844;4.396;2023-09-18T11:56:41;23.30;99.90
23160;DHT22;11748;50.844;4.396;2023-09-18T11:59:08;23.00;99.90
23160;DHT22;11748;50.844;4.396;2023-09-18T12:01:36;22.80;99.90
23160;DHT22;11748;50.844;4.396;2023-09-18T12:04:05;22.90;99.90
23160;DHT22;11748;50.844;4.396;2023-09-18T12:06:35;22.60;99.90
23160;DHT22;11748;50.844;4.396;2023-09-18T12:09:02;22.60;99.90
23160;DHT22;11748;50.844;4.396;2023-09-18T12:11:29;22.80;99.90
23160;DHT22;11748;50.844;4.396;2023-09-18T12:13:55;22.90;99.90
23160;DHT22;11748;50.844;4.396;2023-09-18T12:16:23;23.20;99.90
23160;DHT22;11748;50.844;4.396;2023-09-18T12:18:49;23.50;99.90
23160;DHT22;11748;50.844;4.396;2023-09-18T12:21:16;23.70;99.90
23160;DHT22;11748;50.844;4.396;2023-09-18T12:23:44;23.90;99.90
23160;DHT22;11748;50.844;4.396;2023-09-18T12:26:14;24.10;99.90
23160;DHT22;11748;50.844;4.396;2023-09-18T12:28:42;23.90;99.90
23160;DHT22;11748;50.844;4.396;2023-09-18T12:31:15;23.90;99.90
23160;DHT22;11748;50.844;4.396;2023-09-18T12:33:43;23.90;99.90
23160;DHT22;11748;50.844;4.396;2023-09-18T12:36:18;23.60;99.90
23160;DHT22;11748;50.844;4.396;2023-09-18T12:38:55;23.70;99.90
23160;DHT22;11748;50.844;4.396;2023-09-18T12:41:21;23.90;99.90
23160;DHT22;11748;50.844;4.396;2023-09-18T12:43:47;24.10;99.90
23160;DHT22;11748;50.844;4.396;2023-09-18T12:46:13;24.20;99.90
23160;DHT22;11748;50.844;4.396;2023-09-18T12:48:40;24.40;99.90
23160;DHT22;11748;50.844;4.396;2023-09-18T12:51:13;24.60;99.90
23160;DHT22;11748;50.844;4.396;2023-09-18T12:53:40;24.50;99.90
23160;DHT22;11748;50.844;4.396;2023-09-18T12:56:13;24.60;99.90
23160;DHT22;11748;50.844;4.396;2023-09-18T12:58:40;24.80;99.90
23160;DHT22;11748;50.844;4.396;2023-09-18T13:01:07;25.00;99.90
23160;DHT22;11748;50.844;4.396;2023-09-18T13:03:42;25.00;99.90
23160;DHT22;11748;50.844;4.396;2023-09-18T13:06:16;25.00;99.90
23160;DHT22;11748;50.844;4.396;2023-09-18T13:08:46;25.00;99.90
23160;DHT22;11748;50.844;4.396;2023-09-18T13:11:12;25.00;99.90
23160;DHT22;11748;50.844;4.396;2023-09-18T13:13:40;25.10;99.90
23160;DHT22;11748;50.844;4.396;2023-09-18T13:16:07;24.80;99.90
23160;DHT22;11748;50.844;4.396;2023-09-18T13:18:37;25.00;99.90
23160;DHT22;11748;50.844;4.396;2023-09-18T13:21:14;25.30;99.90
23160;DHT22;11748;50.844;4.396;2023-09-18T13:23:40;25.30;99.90
23160;DHT22;11748;50.844;4.396;2023-09-18T13:26:07;25.20;99.90
23160;DHT22;11748;50.844;4.396;2023-09-18T13:28:36;25.30;99.90
23160;DHT22;11748;50.844;4.396;2023-09-18T13:31:05;25.50;99.90
23160;DHT22;11748;50.844;4.396;2023-09-18T13:33:32;25.50;99.90
23160;DHT22;11748;50.844;4.396;2023-09-18T13:35:59;25.70;99.90
23160;DHT22;11748;50.844;4.396;2023-09-18T13:38:25;25.50;99.90
23160;DHT22;11748;50.844;4.396;2023-09-18T13:40:53;25.40;99.90
23160;DHT22;11748;50.844;4.396;2023-09-18T13:43:20;25.50;99.90
23160;DHT22;11748;50.844;4.396;2023-09-18T13:45:48;25.10;99.90
23160;DHT22;11748;50.844;4.396;2023-09-18T13:48:17;25.20;99.90
23160;DHT22;11748;50.844;4.396;2023-09-18T13:50:44;25.10;99.90
23160;DHT22;11748;50.844;4.396;2023-09-18T13:53:11;25.00;99.90
23160;DHT22;11748;50.844;4.396;2023-09-18T13:55:37;25.10;99.90
23160;DHT22;11748;50.844;4.396;2023-09-18T13:58:03;25.20;99.90
23160;DHT22;11748;50.844;4.396;2023-09-18T14:00:29;25.20;99.90
23160;DHT22;11748;50.844;4.396;2023-09-18T14:02:54;25.40;99.90
23160;DHT22;11748;50.844;4.396;2023-09-18T14:05:20;25.60;99.90
23160;DHT22;11748;50.844;4.396;2023-09-18T14:07:46;25.70;99.90
23160;DHT22;11748;50.844;4.396;2023-09-18T14:10:13;25.20;99.90
23160;DHT22;11748;50.844;4.396;2023-09-18T14:12:40;24.80;99.90
23160;DHT22;11748;50.844;4.396;2023-09-18T14:15:07;24.80;99.90
23160;DHT22;11748;50.844;4.396;2023-09-18T14:17:34;24.90;99.90
23160;DHT22;11748;50.844;4.396;2023-09-18T14:20:00;25.00;99.90
23160;DHT22;11748;50.844;4.396;2023-09-18T14:22:26;25.00;99.90
23160;DHT22;11748;50.844;4.396;2023-09-18T14:24:52;24.80;99.90
23160;DHT22;11748;50.844;4.396;2023-09-18T14:27:17;24.50;99.90
23160;DHT22;11748;50.844;4.396;2023-09-18T14:29:43;24.60;99.90
23160;DHT22;11748;50.844;4.396;2023-09-18T14:32:10;24.60;99.90
23160;DHT22;11748;50.844;4.396;2023-09-18T14:34:37;24.60;99.90
23160;DHT22;11748;50.844;4.396;2023-09-18T14:37:03;24.60;99.90
23160;DHT22;11748;50.844;4.396;2023-09-18T14:39:33;24.60;99.90
23160;DHT22;11748;50.844;4.396;2023-09-18T14:41:59;24.40;99.90
23160;DHT22;11748;50.844;4.396;2023-09-18T14:44:27;23.60;99.90
23160;DHT22;11748;50.844;4.396;2023-09-18T14:46:58;22.10;99.90
23160;DHT22;11748;50.844;4.396;2023-09-18T14:49:25;21.10;99.90
23160;DHT22;11748;50.844;4.396;2023-09-18T14:51:53;20.20;99.90
23160;DHT22;11748;50.844;4.396;2023-09-18T14:54:19;19.90;99.90
23160;DHT22;11748;50.844;4.396;2023-09-18T14:56:45;19.90;99.90
23160;DHT22;11748;50.844;4.396;2023-09-18T14:59:12;19.90;99.90
23160;DHT22;11748;50.844;4.396;2023-09-18T15:01:38;19.70;99.90
23160;DHT22;11748;50.844;4.396;2023-09-18T15:04:04;19.60;99.90
23160;DHT22;11748;50.844;4.396;2023-09-18T15:06:30;19.70;99.90
23160;DHT22;11748;50.844;4.396;2023-09-18T15:08:56;19.90;99.90
23160;DHT22;11748;50.844;4.396;2023-09-18T15:11:22;20.30;99.90
23160;DHT22;11748;50.844;4.396;2023-09-18T15:13:49;20.20;99.90
23160;DHT22;11748;50.844;4.396;2023-09-18T15:16:15;20.30;99.90
23160;DHT22;11748;50.844;4.396;2023-09-18T15:18:40;20.30;99.90
23160;DHT22;11748;50.844;4.396;2023-09-18T15:21:07;20.30;99.90
23160;DHT22;11748;50.844;4.396;2023-09-18T15:23:33;20.50;99.90
23160;DHT22;11748;50.844;4.396;2023-09-18T15:25:59;20.60;99.90
23160;DHT22;11748;50.844;4.396;2023-09-18T15:28:25;20.80;99.90
23160;DHT22;11748;50.844;4.396;2023-09-18T15:30:53;21.00;99.90
23160;DHT22;11748;50.844;4.396;2023-09-18T15:33:19;21.10;99.90
23160;DHT22;11748;50.844;4.396;2023-09-18T15:35:53;20.90;99.90
23160;DHT22;11748;50.844;4.396;2023-09-18T15:38:20;20.90;99.90
23160;DHT22;11748;50.844;4.396;2023-09-18T15:40:47;20.80;99.90
23160;DHT22;11748;50.844;4.396;2023-09-18T15:43:13;20.70;99.90
23160;DHT22;11748;50.844;4.396;2023-09-18T15:45:39;20.70;99.90